Time;durP1;ratioP1;P1;durP2;ratioP2;P2;SDS_P1;SDS_P2;PMS_P1;PMS_P2;Temp;Humidity;BMP_temperature;BMP_pressure;BME280_temperature;BME280_humidity;BME280_pressure;Samples;Min_cycle;Max_cycle;Signal;HPM_P1;HPM_P2
2022/12/10 00:01:30;;;;;;;1.67;1.30;;;0.70;99.90;;;;;;5083950;28;20050;-64
2022/12/10 00:03:58;;;;;;;1.50;1.40;;;0.70;99.90;;;;;;5081257;28;20064;-63
2022/12/10 00:06:29;;;;;;;2.42;1.55;;;0.70;99.90;;;;;;5078799;28;20055;-64
2022/12/10 00:08:56;;;;;;;1.42;1.23;;;0.70;99.90;;;;;;5083550;28;20638;-63
2022/12/10 00:11:24;;;;;;;2.00;1.63;;;0.70;99.90;;;;;;5083143;28;20122;-70
2022/12/10 00:13:52;;;;;;;3.40;1.90;;;0.70;99.90;;;;;;5078421;28;20045;-67
2022/12/10 00:16:23;;;;;;;2.97;2.05;;;0.70;99.90;;;;;;5085707;28;20052;-65
2022/12/10 00:18:51;;;;;;;3.55;1.48;;;0.70;99.90;;;;;;5081111;28;20139;-63
2022/12/10 00:21:24;;;;;;;3.83;2.65;;;0.70;99.90;;;;;;5065419;28;20135;-65
2022/12/10 00:23:51;;;;;;;3.88;2.85;;;0.70;99.90;;;;;;5085255;28;20070;-66
2022/12/10 00:26:21;;;;;;;1.70;1.55;;;0.70;99.90;;;;;;5081311;28;20152;-64
2022/12/10 00:28:49;;;;;;;1.35;1.25;;;0.70;99.90;;;;;;5081148;28;20171;-64
2022/12/10 00:31:22;;;;;;;1.90;1.52;;;0.70;99.90;;;;;;5082442;28;20052;-64
2022/12/10 00:33:50;;;;;;;1.42;1.33;;;0.70;99.90;;;;;;5079211;28;20052;-65
2022/12/10 00:36:20;;;;;;;3.35;1.38;;;0.70;99.90;;;;;;5085052;28;20056;-63
2022/12/10 00:38:48;;;;;;;1.33;1.10;;;0.60;99.90;;;;;;5078556;28;20094;-63
2022/12/10 00:41:15;;;;;;;1.42;1.33;;;0.70;99.90;;;;;;5079028;28;20059;-64
2022/12/10 00:43:43;;;;;;;2.70;1.88;;;0.70;99.90;;;;;;5080414;28;20465;-66
2022/12/10 00:46:12;;;;;;;2.05;1.40;;;0.70;99.90;;;;;;5080961;28;20062;-71
2022/12/10 00:48:40;;;;;;;2.58;1.52;;;0.70;99.90;;;;;;5062394;28;20105;-68
2022/12/10 00:51:11;;;;;;;1.67;1.00;;;0.80;99.90;;;;;;5078725;28;20127;-71
2022/12/10 00:53:39;;;;;;;1.70;1.40;;;0.70;99.90;;;;;;5061106;28;20135;-64
2022/12/10 00:56:07;;;;;;;1.60;1.17;;;0.80;99.90;;;;;;5079285;28;20494;-64
2022/12/10 00:58:36;;;;;;;3.00;1.25;;;0.80;99.90;;;;;;5084013;28;20048;-63
2022/12/10 01:01:19;;;;;;;2.08;1.77;;;0.80;99.90;;;;;;5060595;28;20046;-65
2022/12/10 01:03:49;;;;;;;1.35;0.98;;;0.90;99.90;;;;;;5079879;28;20071;-64
2022/12/10 01:06:28;;;;;;;1.00;0.85;;;0.90;99.90;;;;;;5078426;28;20054;-71
2022/12/10 01:09:01;;;;;;;1.00;0.90;;;0.90;99.90;;;;;;5082704;28;20062;-66
2022/12/10 01:11:36;;;;;;;0.77;0.77;;;0.90;99.90;;;;;;5076591;28;20569;-69
2022/12/10 01:14:06;;;;;;;3.30;1.38;;;0.90;99.90;;;;;;5061675;28;20429;-63
2022/12/10 01:16:34;;;;;;;2.50;1.52;;;0.90;99.90;;;;;;5084126;28;20412;-65
2022/12/10 01:19:02;;;;;;;2.80;1.73;;;0.90;99.90;;;;;;5079035;28;20040;-66
2022/12/10 01:21:29;;;;;;;2.22;1.75;;;0.90;99.90;;;;;;5079028;28;20135;-63
2022/12/10 01:23:57;;;;;;;1.80;1.08;;;0.90;99.90;;;;;;5082764;28;20052;-63
2022/12/10 01:26:29;;;;;;;1.85;1.67;;;0.80;99.90;;;;;;5080147;28;20094;-63
2022/12/10 01:28:56;;;;;;;2.45;1.80;;;0.80;99.90;;;;;;5076781;28;20044;-66
2022/12/10 01:31:26;;;;;;;3.85;1.52;;;0.70;99.90;;;;;;5077276;28;20040;-72
2022/12/10 01:33:54;;;;;;;1.60;1.50;;;0.70;99.90;;;;;;5080912;28;20044;-64
2022/12/10 01:36:32;;;;;;;1.42;1.30;;;0.70;99.90;;;;;;5080315;28;20070;-67
2022/12/10 01:39:00;;;;;;;1.60;1.50;;;0.70;99.90;;;;;;5082209;28;20062;-63
2022/12/10 01:41:53;;;;;;;2.08;1.60;;;0.70;99.90;;;;;;5063379;28;20052;-64
2022/12/10 01:44:20;;;;;;;2.55;1.90;;;0.70;99.90;;;;;;5061233;28;20401;-67
2022/12/10 01:46:53;;;;;;;2.35;1.70;;;0.60;99.90;;;;;;5061486;28;20040;-64
2022/12/10 01:49:26;;;;;;;3.47;2.10;;;0.60;99.90;;;;;;5082254;28;20492;-67
2022/12/10 01:51:55;;;;;;;2.50;2.00;;;0.60;99.90;;;;;;5083114;28;20058;-63
2022/12/10 01:54:26;;;;;;;3.17;1.50;;;0.60;99.90;;;;;;5081801;28;20619;-67
2022/12/10 01:57:00;;;;;;;1.55;1.45;;;0.60;99.90;;;;;;5076965;28;20131;-64
2022/12/10 01:59:28;;;;;;;2.78;2.58;;;0.70;99.90;;;;;;5081119;28;20039;-67
2022/12/10 02:01:55;;;;;;;2.55;1.80;;;0.70;99.90;;;;;;5081215;28;20044;-71
2022/12/10 02:04:34;;;;;;;2.53;2.20;;;0.60;99.90;;;;;;5078814;28;20044;-66
2022/12/10 02:07:13;;;;;;;1.80;1.60;;;0.70;99.90;;;;;;5079332;28;20147;-67
2022/12/10 02:10:01;;;;;;;3.05;1.50;;;0.70;99.90;;;;;;5083734;28;20036;-66
2022/12/10 02:13:03;;;;;;;3.30;1.88;;;0.70;99.90;;;;;;5079991;28;20139;-64
2022/12/10 02:15:34;;;;;;;4.10;2.00;;;0.70;99.90;;;;;;5041370;28;20054;-64
2022/12/10 02:18:11;;;;;;;2.50;1.98;;;0.60;99.90;;;;;;5061765;28;20447;-64
2022/12/10 02:20:50;;;;;;;2.63;2.38;;;0.60;99.90;;;;;;5084149;28;20044;-65
2022/12/10 02:23:24;;;;;;;4.30;2.53;;;0.60;99.90;;;;;;5048325;28;21107;-68
2022/12/10 02:26:04;;;;;;;4.75;3.03;;;0.60;99.90;;;;;;5066416;28;20044;-69
2022/12/10 02:28:44;;;;;;;4.55;2.67;;;0.50;99.90;;;;;;5070457;28;20042;-64
2022/12/10 02:31:17;;;;;;;2.75;2.17;;;0.50;99.90;;;;;;5066397;28;20043;-69
2022/12/10 02:33:50;;;;;;;4.40;2.33;;;0.50;99.90;;;;;;5064081;28;20040;-71
2022/12/10 02:36:19;;;;;;;2.25;2.05;;;0.50;99.90;;;;;;5081949;28;20192;-66
2022/12/10 02:38:50;;;;;;;1.95;1.63;;;0.50;99.90;;;;;;5060949;28;20051;-69
2022/12/10 02:41:28;;;;;;;1.98;1.77;;;0.50;99.90;;;;;;5081360;28;20071;-63
2022/12/10 02:43:58;;;;;;;4.65;2.40;;;0.50;99.90;;;;;;5082746;28;20528;-75
2022/12/10 02:46:28;;;;;;;2.85;2.05;;;0.50;99.90;;;;;;5082992;28;20396;-66
2022/12/10 02:48:57;;;;;;;2.78;1.67;;;0.60;99.90;;;;;;5063832;28;20131;-65
2022/12/10 02:51:24;;;;;;;7.45;2.00;;;0.50;99.90;;;;;;5083639;28;20123;-69
2022/12/10 02:54:06;;;;;;;3.80;1.50;;;0.60;99.90;;;;;;5080487;28;20083;-70
2022/12/10 02:57:01;;;;;;;2.05;1.45;;;0.50;99.90;;;;;;5079820;28;20116;-69
2022/12/10 03:00:06;;;;;;;2.72;1.83;;;0.60;99.90;;;;;;5077709;28;20059;-64
2022/12/10 03:03:00;;;;;;;1.92;1.20;;;0.60;99.90;;;;;;5079325;28;20483;-72
2022/12/10 03:05:42;;;;;;;2.35;1.98;;;0.70;99.90;;;;;;5081797;28;20052;-67
2022/12/10 03:08:23;;;;;;;3.28;2.25;;;0.70;99.90;;;;;;5088605;28;20052;-69
2022/12/10 03:10:53;;;;;;;2.78;2.42;;;0.60;99.90;;;;;;5081768;28;20128;-67
2022/12/10 03:13:27;;;;;;;3.92;2.40;;;0.60;99.90;;;;;;5081170;28;20049;-64
2022/12/10 03:15:55;;;;;;;4.78;2.92;;;0.60;99.90;;;;;;5078908;28;20347;-64
2022/12/10 03:18:25;;;;;;;4.82;2.95;;;0.60;99.90;;;;;;5085570;28;20074;-65
2022/12/10 03:20:54;;;;;;;2.97;2.08;;;0.70;99.90;;;;;;5082923;28;20048;-68
2022/12/10 03:23:21;;;;;;;3.63;2.10;;;0.60;99.90;;;;;;5082130;28;20043;-63
2022/12/10 03:25:50;;;;;;;3.40;2.38;;;0.60;99.90;;;;;;5082158;28;20413;-67
2022/12/10 03:28:21;;;;;;;2.83;2.42;;;0.60;99.90;;;;;;5082420;28;20453;-68
2022/12/10 03:30:50;;;;;;;3.60;2.10;;;0.60;99.90;;;;;;5083556;28;20181;-63
2022/12/10 03:33:17;;;;;;;2.70;2.10;;;0.60;99.90;;;;;;5083072;28;20047;-63
2022/12/10 03:35:45;;;;;;;4.47;2.17;;;0.60;99.90;;;;;;5086673;28;20056;-63
2022/12/10 03:38:13;;;;;;;5.57;2.70;;;0.60;99.90;;;;;;5082770;28;20206;-68
2022/12/10 03:40:40;;;;;;;2.92;2.50;;;0.60;99.90;;;;;;5081507;28;20070;-70
2022/12/10 03:43:07;;;;;;;2.42;2.15;;;0.60;99.90;;;;;;5082921;28;20052;-62
2022/12/10 03:45:34;;;;;;;3.85;2.45;;;0.60;99.90;;;;;;5083314;28;20063;-65
2022/12/10 03:48:01;;;;;;;2.95;2.35;;;0.60;99.90;;;;;;5085996;28;20545;-68
2022/12/10 03:50:28;;;;;;;4.88;2.83;;;0.60;99.90;;;;;;5067349;28;20513;-62
2022/12/10 03:52:54;;;;;;;5.43;2.55;;;0.50;99.90;;;;;;5082470;28;20043;-63
2022/12/10 03:55:21;;;;;;;2.30;2.03;;;0.50;99.90;;;;;;5079605;28;20032;-62
2022/12/10 03:57:48;;;;;;;3.38;2.30;;;0.50;99.90;;;;;;5084255;22;20442;-66
2022/12/10 04:00:15;;;;;;;2.80;2.20;;;0.50;99.90;;;;;;5078774;28;20124;-76
2022/12/10 04:02:42;;;;;;;2.38;2.15;;;0.50;99.90;;;;;;5086444;22;20047;-66
2022/12/10 04:05:09;;;;;;;2.25;2.05;;;0.50;99.90;;;;;;5100951;28;20036;-65
2022/12/10 04:07:36;;;;;;;2.47;1.85;;;0.50;99.90;;;;;;5106144;28;20036;-69
2022/12/10 04:10:04;;;;;;;2.97;2.20;;;0.50;99.90;;;;;;5105657;28;20132;-67
2022/12/10 04:12:30;;;;;;;3.78;2.53;;;0.50;99.90;;;;;;5083156;28;20051;-70
2022/12/10 04:17:43;;;;;;;2.45;2.20;;;0.40;99.90;;;;;;5104125;28;20054;-66
2022/12/10 04:26:51;;;;;;;3.00;2.25;;;0.40;99.90;;;;;;5106851;28;20142;-64
2022/12/10 04:28:31;;;;;;;2.63;2.42;;;0.40;99.90;;;;;;5104811;28;20156;-71
2022/12/10 04:31:01;;;;;;;3.00;2.15;;;0.30;99.90;;;;;;5098984;28;20048;-66
2022/12/10 04:33:28;;;;;;;2.17;2.03;;;0.20;99.90;;;;;;5101740;28;20135;-62
2022/12/10 04:35:55;;;;;;;2.38;2.17;;;0.10;99.90;;;;;;5100374;28;20547;-68
2022/12/10 04:38:22;;;;;;;2.38;2.15;;;0.00;99.90;;;;;;5105151;28;21808;-67
2022/12/10 04:40:49;;;;;;;2.75;2.13;;;0.00;99.90;;;;;;5103987;28;20046;-66
2022/12/10 04:43:16;;;;;;;2.28;1.83;;;-0.10;99.90;;;;;;5104457;28;20051;-66
2022/12/10 04:45:43;;;;;;;2.38;2.10;;;-0.10;99.90;;;;;;5103678;28;20040;-63
2022/12/10 04:48:09;;;;;;;4.00;2.45;;;-0.20;99.90;;;;;;5100363;28;20036;-72
2022/12/10 04:50:36;;;;;;;2.75;2.15;;;-0.20;99.90;;;;;;5102530;28;20180;-63
2022/12/10 04:53:03;;;;;;;2.08;1.88;;;-0.20;99.90;;;;;;5098458;28;20099;-65
2022/12/10 04:55:30;;;;;;;4.65;2.03;;;-0.20;99.90;;;;;;5104302;28;20402;-65
2022/12/10 04:57:57;;;;;;;3.67;2.08;;;-0.20;99.90;;;;;;5105052;28;20035;-68
2022/12/10 05:00:24;;;;;;;2.10;1.95;;;-0.20;99.90;;;;;;5102139;28;20160;-69
2022/12/10 05:02:51;;;;;;;2.67;1.73;;;-0.30;99.90;;;;;;5097880;28;20154;-71
2022/12/10 05:05:18;;;;;;;1.95;1.70;;;-0.30;99.90;;;;;;5101190;28;20036;-64
2022/12/10 05:07:45;;;;;;;1.88;1.75;;;-0.20;99.90;;;;;;5107097;28;20130;-66
2022/12/10 05:10:12;;;;;;;2.15;1.80;;;-0.30;99.90;;;;;;5103377;28;20431;-67
2022/12/10 05:12:39;;;;;;;2.55;1.65;;;-0.30;99.90;;;;;;5101283;28;20186;-64
2022/12/10 05:15:07;;;;;;;1.98;1.67;;;-0.30;99.90;;;;;;5103344;28;20054;-63
2022/12/10 05:17:34;;;;;;;2.83;2.10;;;-0.30;99.90;;;;;;5104499;28;20047;-71
2022/12/10 05:20:01;;;;;;;2.03;1.83;;;-0.30;99.90;;;;;;5101837;28;20051;-63
2022/12/10 05:25:13;;;;;;;5.50;2.45;;;-0.30;99.90;;;;;;5103723;28;20151;-69
2022/12/10 05:27:41;;;;;;;2.10;1.73;;;-0.30;99.90;;;;;;5104772;28;20040;-63
2022/12/10 05:30:09;;;;;;;3.58;3.22;;;-0.30;99.90;;;;;;5104401;28;20043;-66
2022/12/10 05:32:36;;;;;;;2.15;1.95;;;-0.30;99.90;;;;;;5104103;28;20442;-67
2022/12/10 05:35:04;;;;;;;2.03;1.60;;;-0.30;99.90;;;;;;5102466;28;20063;-68
2022/12/10 05:37:31;;;;;;;1.98;1.75;;;-0.30;99.90;;;;;;5107012;28;20050;-67
2022/12/10 05:39:58;;;;;;;1.95;1.75;;;-0.30;99.90;;;;;;5104073;28;20113;-64
2022/12/10 05:42:25;;;;;;;2.40;1.92;;;-0.30;99.90;;;;;;5099039;28;20036;-65
2022/12/10 05:44:52;;;;;;;3.28;2.22;;;-0.30;99.90;;;;;;5109867;28;20050;-74
2022/12/10 05:47:19;;;;;;;3.13;1.40;;;-0.30;99.90;;;;;;5112589;28;20049;-63
2022/12/10 05:49:47;;;;;;;2.20;1.92;;;-0.30;99.90;;;;;;5109300;28;20369;-64
2022/12/10 05:52:18;;;;;;;2.35;1.90;;;-0.30;99.90;;;;;;5111640;28;20173;-63
2022/12/10 05:54:45;;;;;;;2.90;2.25;;;-0.30;99.90;;;;;;5108636;28;20051;-64
2022/12/10 05:57:12;;;;;;;2.78;2.28;;;-0.30;99.90;;;;;;5109059;28;20123;-69
2022/12/10 05:59:39;;;;;;;1.88;1.55;;;-0.40;99.90;;;;;;5110442;27;20695;-63
2022/12/10 06:02:06;;;;;;;2.78;1.65;;;-0.30;99.90;;;;;;5107922;28;20055;-68
2022/12/10 06:04:33;;;;;;;1.98;1.80;;;-0.30;99.90;;;;;;5108394;28;20052;-63
2022/12/10 06:07:00;;;;;;;1.73;1.50;;;-0.30;99.90;;;;;;5106353;28;20464;-71
2022/12/10 06:09:33;;;;;;;2.55;1.60;;;-0.40;99.90;;;;;;5108176;28;20437;-66
2022/12/10 06:12:00;;;;;;;1.67;1.55;;;-0.40;99.90;;;;;;5107780;28;20054;-64
2022/12/10 06:14:27;;;;;;;2.30;1.83;;;-0.40;99.90;;;;;;5109300;28;20039;-66
2022/12/10 06:16:54;;;;;;;2.20;2.03;;;-0.30;99.90;;;;;;5104358;28;20055;-64
2022/12/10 06:19:20;;;;;;;1.80;1.60;;;-0.30;99.90;;;;;;5110994;28;20035;-64
2022/12/10 06:21:47;;;;;;;1.33;1.23;;;-0.30;99.90;;;;;;5107650;28;20366;-64
2022/12/10 06:24:14;;;;;;;3.05;1.85;;;-0.40;99.90;;;;;;5079189;22;20047;-71
2022/12/10 06:26:41;;;;;;;2.15;1.45;;;-0.30;99.90;;;;;;5055546;28;20513;-63
2022/12/10 06:29:09;;;;;;;2.20;1.83;;;-0.30;99.90;;;;;;5074531;28;20047;-66
2022/12/10 06:31:35;;;;;;;3.20;2.15;;;-0.40;99.90;;;;;;5071883;28;20067;-67
2022/12/10 06:34:02;;;;;;;1.70;1.60;;;-0.40;99.90;;;;;;5065736;28;20041;-63
2022/12/10 06:36:29;;;;;;;2.65;2.30;;;-0.40;99.90;;;;;;5070986;28;20060;-63
2022/12/10 06:38:56;;;;;;;3.28;2.30;;;-0.30;99.90;;;;;;5066467;28;20048;-65
2022/12/10 06:41:23;;;;;;;2.97;2.78;;;-0.40;99.90;;;;;;5072842;28;20475;-66
2022/12/10 06:43:50;;;;;;;1.67;1.52;;;-0.40;99.90;;;;;;5055658;28;20067;-67
2022/12/10 06:46:19;;;;;;;3.35;2.47;;;-0.30;99.90;;;;;;5072836;28;20063;-67
2022/12/10 06:48:47;;;;;;;2.53;2.00;;;-0.30;99.90;;;;;;5069198;28;20057;-74
2022/12/10 06:51:14;;;;;;;3.53;2.22;;;-0.40;99.90;;;;;;5070446;22;20301;-65
2022/12/10 06:53:41;;;;;;;2.38;2.10;;;-0.40;99.90;;;;;;5089032;28;20054;-63
2022/12/10 06:56:12;;;;;;;2.60;1.88;;;-0.40;99.90;;;;;;5086239;28;20040;-64
2022/12/10 06:58:41;;;;;;;2.83;2.10;;;-0.40;99.90;;;;;;5085467;28;20472;-65
2022/12/10 07:01:20;;;;;;;6.75;2.60;;;-0.40;99.90;;;;;;5086649;28;20055;-70
2022/12/10 07:03:49;;;;;;;2.28;1.98;;;-0.40;99.90;;;;;;5081400;28;20093;-68
2022/12/10 07:06:17;;;;;;;3.03;2.20;;;-0.40;99.90;;;;;;5084366;28;20127;-63
2022/12/10 07:08:45;;;;;;;2.05;1.77;;;-0.40;99.90;;;;;;5081128;28;20136;-67
2022/12/10 07:11:14;;;;;;;1.85;1.75;;;-0.40;99.90;;;;;;5084578;28;20040;-65
2022/12/10 07:13:42;;;;;;;2.30;2.10;;;-0.40;99.90;;;;;;5083756;28;20655;-63
2022/12/10 07:16:23;;;;;;;2.25;1.58;;;-0.40;99.90;;;;;;5080102;28;20359;-71
2022/12/10 07:18:51;;;;;;;2.13;1.90;;;-0.40;99.90;;;;;;5075166;28;20044;-66
2022/12/10 07:21:29;;;;;;;2.65;2.45;;;-0.30;99.90;;;;;;5077534;28;20513;-68
2022/12/10 07:23:59;;;;;;;3.75;2.10;;;-0.40;99.90;;;;;;5075779;28;20054;-67
2022/12/10 07:26:28;;;;;;;3.00;1.83;;;-0.30;99.90;;;;;;5079948;28;20376;-70
2022/12/10 07:28:55;;;;;;;2.08;1.65;;;-0.40;99.90;;;;;;5077472;28;20201;-71
2022/12/10 07:31:22;;;;;;;3.80;2.00;;;-0.30;99.90;;;;;;5072467;22;20127;-68
2022/12/10 07:33:52;;;;;;;2.30;2.10;;;-0.30;99.90;;;;;;5079771;28;20048;-64
2022/12/10 07:36:20;;;;;;;2.05;1.90;;;-0.30;99.90;;;;;;5077372;28;20035;-69
2022/12/10 07:38:47;;;;;;;5.80;2.67;;;-0.30;99.90;;;;;;5078000;28;20185;-63
2022/12/10 07:41:15;;;;;;;2.20;2.00;;;-0.40;99.90;;;;;;5076130;28;20105;-68
2022/12/10 07:43:44;;;;;;;2.53;2.33;;;-0.40;99.90;;;;;;5078506;28;20060;-72
2022/12/10 07:46:23;;;;;;;5.07;2.13;;;-0.40;99.90;;;;;;5076311;28;20472;-70
2022/12/10 07:48:51;;;;;;;1.98;1.77;;;-0.40;99.90;;;;;;5077653;28;20044;-68
2022/12/10 07:51:20;;;;;;;1.88;1.77;;;-0.40;99.90;;;;;;5071666;28;20098;-64
2022/12/10 07:53:48;;;;;;;2.90;2.28;;;-0.40;99.90;;;;;;5078145;28;20182;-65
2022/12/10 07:56:15;;;;;;;2.47;2.25;;;-0.40;99.90;;;;;;5073594;28;20843;-74
2022/12/10 07:58:43;;;;;;;1.63;1.50;;;-0.40;99.90;;;;;;5073889;28;20043;-72
2022/12/10 08:01:13;;;;;;;2.28;1.98;;;-0.40;99.90;;;;;;5073035;28;20048;-71
2022/12/10 08:03:40;;;;;;;3.55;2.38;;;-0.40;99.90;;;;;;5075355;28;20139;-68
2022/12/10 08:06:13;;;;;;;2.42;1.55;;;-0.40;99.90;;;;;;5072263;28;20151;-67
2022/12/10 08:08:41;;;;;;;3.70;1.88;;;-0.50;99.90;;;;;;5056791;28;20048;-63
2022/12/10 08:11:09;;;;;;;3.88;2.22;;;-0.50;99.90;;;;;;5071607;28;20101;-72
2022/12/10 08:13:36;;;;;;;2.17;1.50;;;-0.50;99.90;;;;;;5074600;28;20040;-66
2022/12/10 08:16:05;;;;;;;2.13;1.92;;;-0.60;99.90;;;;;;5076474;28;20152;-64
2022/12/10 08:18:33;;;;;;;1.65;1.55;;;-0.60;99.90;;;;;;5076035;28;20132;-64
2022/12/10 08:21:08;;;;;;;1.67;1.33;;;-0.70;99.90;;;;;;5073145;28;20043;-65
2022/12/10 08:23:36;;;;;;;1.25;1.15;;;-0.60;99.90;;;;;;5075047;28;20056;-68
2022/12/10 08:26:07;;;;;;;1.55;1.45;;;-0.70;99.90;;;;;;5081785;28;20120;-64
2022/12/10 08:28:35;;;;;;;4.35;3.00;;;-0.60;99.90;;;;;;5088236;22;20162;-64
2022/12/10 08:31:02;;;;;;;2.20;2.00;;;-0.60;99.90;;;;;;5094249;28;20897;-66
2022/12/10 08:33:29;;;;;;;2.05;1.48;;;-0.60;99.90;;;;;;5094576;28;20077;-65
2022/12/10 08:35:59;;;;;;;2.55;1.90;;;-0.60;99.90;;;;;;5093834;28;20051;-63
2022/12/10 08:38:32;;;;;;;1.38;1.10;;;-0.60;99.90;;;;;;5092485;28;20131;-65
2022/12/10 08:41:04;;;;;;;1.60;1.42;;;-0.50;99.90;;;;;;5091840;28;20052;-70
2022/12/10 08:43:31;;;;;;;2.03;1.58;;;-0.50;99.90;;;;;;5092224;28;20377;-69
2022/12/10 08:45:58;;;;;;;3.03;1.83;;;-0.50;99.90;;;;;;5096070;28;20112;-64
2022/12/10 08:48:25;;;;;;;2.78;2.13;;;-0.50;99.90;;;;;;5096191;28;20093;-69
2022/12/10 08:50:52;;;;;;;2.33;1.90;;;-0.50;99.90;;;;;;5093120;28;20051;-69
2022/12/10 08:53:19;;;;;;;2.13;1.88;;;-0.40;99.90;;;;;;5095606;28;20063;-70
2022/12/10 08:55:50;;;;;;;2.95;2.42;;;-0.40;99.90;;;;;;5095445;28;20063;-66
2022/12/10 08:58:18;;;;;;;3.78;3.10;;;-0.30;99.90;;;;;;5099576;28;20070;-67
2022/12/10 09:00:45;;;;;;;2.83;2.53;;;-0.30;99.90;;;;;;5094044;28;20063;-71
2022/12/10 09:03:12;;;;;;;2.92;2.45;;;-0.20;99.90;;;;;;5097081;28;20056;-68
2022/12/10 09:05:40;;;;;;;4.43;2.80;;;-0.20;99.90;;;;;;5095277;28;20393;-69
2022/12/10 09:08:06;;;;;;;2.45;2.03;;;-0.30;99.90;;;;;;5099132;28;20055;-67
2022/12/10 09:10:38;;;;;;;5.20;3.75;;;-0.20;99.90;;;;;;5095781;28;20039;-65
2022/12/10 09:13:06;;;;;;;2.03;1.83;;;-0.20;99.90;;;;;;5095581;28;20048;-64
2022/12/10 09:15:33;;;;;;;2.13;1.92;;;-0.20;99.90;;;;;;5095110;28;20070;-64
2022/12/10 09:18:00;;;;;;;2.13;1.92;;;-0.20;99.90;;;;;;5098698;28;20052;-68
2022/12/10 09:20:27;;;;;;;2.70;2.10;;;-0.20;99.90;;;;;;5095684;28;20063;-65
2022/12/10 09:22:54;;;;;;;1.73;1.63;;;-0.20;99.90;;;;;;5094605;27;20490;-67
2022/12/10 09:25:21;;;;;;;2.40;1.63;;;-0.30;99.90;;;;;;5096597;28;20040;-69
2022/12/10 09:27:48;;;;;;;3.42;2.97;;;-0.20;99.90;;;;;;5099925;28;20043;-66
2022/12/10 09:30:16;;;;;;;2.00;1.35;;;-0.20;99.90;;;;;;5083638;28;20071;-65
2022/12/10 09:32:44;;;;;;;2.38;1.65;;;-0.20;99.90;;;;;;5098274;28;20130;-64
2022/12/10 09:35:11;;;;;;;1.70;1.60;;;-0.20;99.90;;;;;;5096628;28;20047;-68
2022/12/10 09:37:38;;;;;;;2.08;1.90;;;-0.20;99.90;;;;;;5099027;28;20052;-64
2022/12/10 09:40:05;;;;;;;2.25;2.05;;;-0.20;99.90;;;;;;5094910;28;20100;-63
2022/12/10 09:43:01;;;;;;;3.60;2.28;;;-0.10;99.90;;;;;;5095438;28;20044;-64
2022/12/10 09:45:47;;;;;;;1.85;1.45;;;-0.20;99.90;;;;;;5097578;28;20366;-65
2022/12/10 09:48:33;;;;;;;1.95;1.70;;;-0.10;99.90;;;;;;5097880;28;20466;-67
2022/12/10 09:51:16;;;;;;;1.50;1.40;;;-0.10;99.90;;;;;;5095203;28;20075;-63
2022/12/10 09:53:45;;;;;;;2.22;1.38;;;-0.10;99.90;;;;;;5097304;28;20377;-64
2022/12/10 09:56:23;;;;;;;1.60;1.50;;;0.00;99.90;;;;;;5098834;28;20047;-67
2022/12/10 09:58:50;;;;;;;1.40;1.30;;;0.00;99.90;;;;;;5101941;28;20074;-64
2022/12/10 10:01:19;;;;;;;2.63;2.25;;;0.00;99.90;;;;;;5102411;28;20047;-67
2022/12/10 10:03:46;;;;;;;1.67;1.37;;;0.00;99.90;;;;;;5096642;28;20044;-65
2022/12/10 10:06:15;;;;;;;1.15;0.85;;;0.00;99.90;;;;;;5100365;28;20318;-67
2022/12/10 10:08:46;;;;;;;2.15;1.05;;;-0.10;99.90;;;;;;5094818;28;20134;-68
2022/12/10 10:11:23;;;;;;;2.38;1.60;;;-0.10;99.90;;;;;;5094736;28;20040;-67
2022/12/10 10:13:58;;;;;;;2.28;1.40;;;-0.10;99.90;;;;;;5097618;28;20047;-65
2022/12/10 10:16:46;;;;;;;2.08;1.50;;;-0.10;99.90;;;;;;5094872;28;20791;-64
2022/12/10 10:19:21;;;;;;;3.20;1.23;;;-0.10;99.90;;;;;;5097879;28;20070;-70
2022/12/10 10:21:49;;;;;;;1.25;1.13;;;-0.10;99.90;;;;;;5095596;28;20032;-65
2022/12/10 10:24:21;;;;;;;1.55;1.45;;;0.00;99.90;;;;;;5098144;28;20044;-65
2022/12/10 10:26:49;;;;;;;2.35;1.58;;;0.00;99.90;;;;;;5093497;28;20054;-65
2022/12/10 10:29:19;;;;;;;1.33;1.20;;;0.00;99.90;;;;;;5102238;28;20482;-65
2022/12/10 10:31:46;;;;;;;1.80;1.70;;;0.10;99.90;;;;;;5102655;28;20040;-66
2022/12/10 10:34:18;;;;;;;2.03;1.67;;;0.10;99.90;;;;;;5102677;28;20058;-68
2022/12/10 10:36:46;;;;;;;2.88;1.88;;;0.10;99.90;;;;;;5101269;28;20055;-67
2022/12/10 10:39:16;;;;;;;2.78;2.03;;;0.10;99.90;;;;;;5106369;28;20158;-66
2022/12/10 10:41:43;;;;;;;2.55;1.70;;;0.20;99.90;;;;;;5105060;28;20075;-67
2022/12/10 10:44:15;;;;;;;2.10;1.83;;;0.30;99.90;;;;;;5101541;28;20047;-66
2022/12/10 10:46:45;;;;;;;1.75;1.27;;;0.30;99.90;;;;;;5096653;28;20048;-66
2022/12/10 10:49:21;;;;;;;3.47;1.45;;;0.30;99.90;;;;;;5104445;28;20122;-64
2022/12/10 10:51:48;;;;;;;1.45;1.35;;;0.20;99.90;;;;;;5094853;28;20192;-66
2022/12/10 10:54:37;;;;;;;1.77;1.48;;;0.20;99.90;;;;;;5102812;28;20105;-68
2022/12/10 10:57:11;;;;;;;1.90;1.55;;;0.20;99.90;;;;;;5099119;28;20043;-67
2022/12/10 10:59:39;;;;;;;2.80;1.55;;;0.20;99.90;;;;;;5104340;28;20043;-64
2022/12/10 11:02:14;;;;;;;2.00;1.70;;;0.20;99.90;;;;;;5102779;28;20047;-65
2022/12/10 11:04:49;;;;;;;2.22;2.05;;;0.20;99.90;;;;;;5096214;28;20040;-68
2022/12/10 11:07:33;;;;;;;2.15;1.50;;;0.20;99.90;;;;;;5102009;28;20119;-68
2022/12/10 11:10:02;;;;;;;2.53;1.88;;;0.10;99.90;;;;;;5104462;28;20056;-64
2022/12/10 11:12:39;;;;;;;1.85;1.63;;;0.10;99.90;;;;;;5097292;28;20039;-65
2022/12/10 11:15:21;;;;;;;3.50;1.80;;;0.10;99.90;;;;;;5098296;28;20083;-64
2022/12/10 11:17:51;;;;;;;2.58;1.60;;;0.00;99.90;;;;;;5099359;28;20040;-67
2022/12/10 11:20:26;;;;;;;2.17;1.63;;;0.10;99.90;;;;;;5103625;28;20055;-73
2022/12/10 11:22:58;;;;;;;1.77;1.65;;;0.10;99.90;;;;;;5101862;28;20073;-65
2022/12/10 11:25:55;;;;;;;1.88;1.77;;;0.10;99.90;;;;;;5098894;28;20737;-66
2022/12/10 11:28:55;;;;;;;1.67;1.58;;;0.10;99.90;;;;;;5101752;28;20075;-70
2022/12/10 11:31:42;;;;;;;2.17;1.75;;;0.10;99.90;;;;;;5098829;28;20052;-68
2022/12/10 11:34:20;;;;;;;1.52;1.25;;;0.10;99.90;;;;;;5096261;27;20075;-68
2022/12/10 11:37:09;;;;;;;2.60;1.48;;;0.00;99.90;;;;;;5095066;28;20093;-68
2022/12/10 11:40:10;;;;;;;1.40;1.30;;;0.00;99.90;;;;;;5101072;28;20092;-72
2022/12/10 11:42:55;;;;;;;1.75;1.58;;;0.00;99.90;;;;;;5098759;28;20055;-68
2022/12/10 11:45:45;;;;;;;1.83;1.50;;;0.00;99.90;;;;;;5098579;28;20040;-69
2022/12/10 11:48:54;;;;;;;2.15;1.95;;;0.00;99.90;;;;;;5095796;28;20063;-67
2022/12/10 11:51:44;;;;;;;3.08;1.50;;;0.00;99.90;;;;;;5037833;28;20114;-68
2022/12/10 11:58:35;;;;;;;2.63;1.80;;;-0.10;99.90;;;;;;5094578;28;20460;-65
2022/12/10 12:01:02;;;;;;;2.58;1.90;;;-0.10;99.90;;;;;;5095532;28;20167;-68
2022/12/10 12:03:46;;;;;;;1.92;1.70;;;0.00;99.90;;;;;;5089947;28;20071;-69
2022/12/10 12:06:22;;;;;;;2.55;2.05;;;0.00;99.90;;;;;;5094179;28;20107;-67
2022/12/10 12:08:59;;;;;;;2.67;1.70;;;0.00;99.90;;;;;;5092157;28;20047;-65
2022/12/10 12:11:53;;;;;;;2.50;2.10;;;-0.10;99.90;;;;;;5091478;28;20511;-66
2022/12/10 12:14:25;;;;;;;1.85;1.73;;;-0.10;99.90;;;;;;5100475;28;20047;-65
2022/12/10 12:17:07;;;;;;;2.10;1.70;;;0.00;99.90;;;;;;5091837;28;20055;-67
2022/12/10 12:19:39;;;;;;;2.20;1.77;;;-0.10;99.90;;;;;;5097528;28;20070;-65
2022/12/10 12:22:21;;;;;;;1.83;1.73;;;-0.10;99.90;;;;;;5097884;28;20104;-65
2022/12/10 12:24:50;;;;;;;1.60;1.10;;;-0.20;99.90;;;;;;5095135;28;20044;-66
2022/12/10 12:27:35;;;;;;;1.73;1.60;;;-0.20;99.90;;;;;;5094017;28;20065;-66
2022/12/10 12:30:22;;;;;;;1.73;1.30;;;-0.20;99.90;;;;;;5094486;28;20044;-70
2022/12/10 12:33:00;;;;;;;3.92;2.10;;;-0.30;99.90;;;;;;5095512;28;20048;-69
2022/12/10 12:35:51;;;;;;;3.85;2.70;;;-0.30;99.90;;;;;;5096654;28;20066;-66
2022/12/10 12:38:37;;;;;;;2.50;1.58;;;-0.40;99.90;;;;;;5096233;28;20065;-65
2022/12/10 12:41:21;;;;;;;2.45;1.60;;;-0.40;99.90;;;;;;5091676;28;20134;-71
2022/12/10 12:43:58;;;;;;;1.77;1.58;;;-0.40;99.90;;;;;;5095539;28;20127;-67
2022/12/10 12:46:39;;;;;;;1.88;1.70;;;-0.40;99.90;;;;;;5098063;28;20044;-70
2022/12/10 12:49:12;;;;;;;1.70;1.60;;;-0.40;99.90;;;;;;5094069;28;20123;-64
2022/12/10 12:51:47;;;;;;;2.58;1.83;;;-0.40;99.90;;;;;;5096157;28;20050;-71
2022/12/10 12:54:14;;;;;;;2.58;2.20;;;-0.40;99.90;;;;;;5091622;28;20562;-65
2022/12/10 12:56:50;;;;;;;1.55;1.45;;;-0.40;99.90;;;;;;5097082;28;20054;-64
2022/12/10 12:59:50;;;;;;;3.13;2.25;;;-0.40;99.90;;;;;;5098168;28;20052;-67
2022/12/10 13:02:35;;;;;;;1.48;1.25;;;-0.40;99.90;;;;;;5083896;28;20046;-64
2022/12/10 13:05:03;;;;;;;2.42;1.80;;;-0.40;99.90;;;;;;5095125;28;20039;-66
2022/12/10 13:07:32;;;;;;;4.88;2.13;;;-0.40;99.90;;;;;;5099125;28;20139;-66
2022/12/10 13:10:05;;;;;;;2.15;1.95;;;-0.40;99.90;;;;;;5096582;28;20343;-65
2022/12/10 13:12:45;;;;;;;1.90;1.70;;;-0.40;99.90;;;;;;5097939;28;20043;-66
2022/12/10 13:15:32;;;;;;;1.45;1.35;;;-0.40;99.90;;;;;;5094595;28;20044;-64
2022/12/10 13:18:05;;;;;;;1.70;1.60;;;-0.40;99.90;;;;;;5100265;28;20058;-66
2022/12/10 13:20:33;;;;;;;1.50;1.40;;;-0.40;99.90;;;;;;5102286;28;20054;-66
2022/12/10 13:23:04;;;;;;;1.15;1.15;;;-0.40;99.90;;;;;;5098956;28;20043;-64
2022/12/10 13:25:49;;;;;;;1.40;1.30;;;-0.40;99.90;;;;;;5094440;28;20525;-64
2022/12/10 13:28:25;;;;;;;1.55;1.45;;;-0.50;99.90;;;;;;5094909;28;20086;-65
2022/12/10 13:31:17;;;;;;;1.20;1.10;;;-0.50;99.90;;;;;;5097169;28;20048;-65
2022/12/10 13:34:01;;;;;;;1.58;1.33;;;-0.50;99.90;;;;;;5095886;28;20522;-67